WetterOnline ( https://www.wetteronline.ch )

Wetter aktuell Reschenpass

Aktuelles Wetter: Reschenpass (1461m)

6-stündlich | Neueste Meldungen
Ortszeit Temperatur Wetter
Sa, 24.08. 8:00 13.0° C leicht bewölkt
Sa, 24.08. 2:00 13.8° C wolkig
Fr, 23.08. 20:00 15.6° C bedeckt
Fr, 23.08. 14:00 16.4° C wolkig
Fr, 23.08. 8:00 12.0° C leicht bewölkt
Fr, 23.08. 2:00 13.8° C leicht bewölkt
Do, 22.08. 20:00 17.6° C wolkig
Do, 22.08. 14:00 20.6° C leicht bewölkt
Ortszeit Temperatur Wetter
Sa, 24.08. 10:00 14.8° C leicht bewölkt
Sa, 24.08. 9:55 15° C leicht bewölkt
Sa, 24.08. 9:00 13.0° C wolkig
Sa, 24.08. 8:55 13° C leicht bewölkt
Sa, 24.08. 8:00 13.0° C leicht bewölkt
Sa, 24.08. 7:55 13° C leicht bewölkt
Sa, 24.08. 7:00 13.4° C wolkig
Sa, 24.08. 6:55 13° C leicht bewölkt
Sa, 24.08. 6:00 13.2° C wolkig
Ortszeit Relative Feuchte Sichtweite
Sa, 24.08. 8:00 96% 10 km
Sa, 24.08. 2:00 98% 10 km
Fr, 23.08. 20:00 94% 10 km
Fr, 23.08. 14:00 70% 10 km
Fr, 23.08. 8:00 94% 20 km
Fr, 23.08. 2:00 91% 20 km
Do, 22.08. 20:00 71% 20 km
Do, 22.08. 14:00 40% 20 km
Ortszeit Relative Feuchte Sichtweite
Sa, 24.08. 10:00 84% 12 km
Sa, 24.08. 9:55 82% >10 km
Sa, 24.08. 9:00 98% 10 km
Sa, 24.08. 8:55 100% >10 km
Sa, 24.08. 8:00 96% 10 km
Sa, 24.08. 7:55 94% >10 km
Sa, 24.08. 7:00 96% 10 km
Sa, 24.08. 6:55 100% >10 km
Sa, 24.08. 6:00 96% 10 km
Ortszeit Niederschlagsmenge Niederschlagsart
Sa, 24.08. 8:00 0.0 l/m2 in 12 Std. -
Sa, 24.08. 2:00 0.0 l/m2 in 6 Std. -
Fr, 23.08. 20:00 2 l/m2 in 12 Std. Regen
Fr, 23.08. 14:00 0.0 l/m2 in 6 Std. -
Fr, 23.08. 8:00 0.2 l/m2 in 12 Std. -
Fr, 23.08. 2:00 0.2 l/m2 in 6 Std. Regen
Do, 22.08. 20:00 0.0 l/m2 in 12 Std. -
Do, 22.08. 14:00 0.0 l/m2 in 6 Std. -
Ortszeit Niederschlagsmenge Niederschlagsart
Sa, 24.08. 10:00 keine Meldung -
Sa, 24.08. 9:55 keine Meldung -
Sa, 24.08. 9:00 keine Meldung -
Sa, 24.08. 8:55 keine Meldung -
Sa, 24.08. 8:00 keine Meldung -
Sa, 24.08. 7:55 keine Meldung -
Sa, 24.08. 7:00 keine Meldung -
Sa, 24.08. 6:55 keine Meldung -
Sa, 24.08. 6:00 keine Meldung -
Ortszeit Stärke Spitze Richtung
km/h Bft. km/h Grad Sektor
Sa, 24.08. 8:00 0 0 - - -
Sa, 24.08. 2:00 0 0 - - -
Fr, 23.08. 20:00 6 1 - 200° S
Fr, 23.08. 14:00 7 2 - 180° S
Fr, 23.08. 8:00 7 2 - 20° N
Fr, 23.08. 2:00 7 2 - 350° N
Do, 22.08. 20:00 2 1 - 30° NO
Do, 22.08. 14:00 15 3 - 190° S
Ortszeit Stärke Spitze Richtung
km/h Bft. km/h Grad Sektor
Sa, 24.08. 10:00 9 2 - 210° SW
Sa, 24.08. 9:55 9 2 - 210° SW
Sa, 24.08. 9:00 0 0 - - -
Sa, 24.08. 8:55 0 0 - - -
Sa, 24.08. 8:00 0 0 - - -
Sa, 24.08. 7:55 0 0 - - -
Sa, 24.08. 7:00 0 0 - - -
Sa, 24.08. 6:55 0 0 - - -
Sa, 24.08. 6:00 0 0 - - -
Ortszeit Untergrenze Bedeckung Gattung
total tief tief mittel hoch
Sa, 24.08. 8:00 600 m 4/8 4/8 St - -
Sa, 24.08. 2:00 900 m 5/8 5/8 Cu - -
Fr, 23.08. 20:00 600 m 8/8 8/8 Cu - -
Fr, 23.08. 14:00 600 m 7/8 3/8 Cu Ac -
Fr, 23.08. 8:00 1800 m 5/8 3/8 - Ac Ci
Fr, 23.08. 2:00 450 m 3/8 2/8 Cu Ac -
Do, 22.08. 20:00 300 m 6/8 5/8 Cu - Ci
Do, 22.08. 14:00 450 m 4/8 3/8 Cu - Ci
Ortszeit Bedeckungsgrad in Achtel und Wolkenuntergrenze
Sa, 24.08. 10:00 3(600m)
Sa, 24.08. 9:55 3-4(600m)
Sa, 24.08. 9:00 2(450m) 4(600m)
Sa, 24.08. 8:55 1-2(450m) 3-4(600m)
Sa, 24.08. 8:00 4(600m)
Sa, 24.08. 7:55 3-4(600m)
Sa, 24.08. 7:00 3(600m) 4(1800m)
Sa, 24.08. 6:55 3-4(600m)
Sa, 24.08. 6:00 3(600m) 4(1800m)
Ortszeit Stationsdruck (hPa) Tendenz (hPa in 3 Std.)
Sa, 24.08. 8:00 863 - 0,9
Sa, 24.08. 2:00 864 - 0,2
Fr, 23.08. 20:00 864 + 0,2
Fr, 23.08. 14:00 864 + 0,1
Fr, 23.08. 8:00 864 0,0
Fr, 23.08. 2:00 865 + 0,6
Do, 22.08. 20:00 863 + 0,8
Do, 22.08. 14:00 863 - 1,4
Ortszeit Stationsdruck (hPa) Tendenz (hPa in 3 Std.)
Sa, 24.08. 10:00 863 + 0,2
Sa, 24.08. 9:55 - keine Meldung
Sa, 24.08. 9:00 863 0,0
Sa, 24.08. 8:55 - keine Meldung
Sa, 24.08. 8:00 863 - 0,9
Sa, 24.08. 7:55 - keine Meldung
Sa, 24.08. 7:00 863 - 0,8
Sa, 24.08. 6:55 - keine Meldung
Sa, 24.08. 6:00 863 - 0,6
Ortszeit Schneehöhe (cm)
Sa, 24.08. 8:00 -
Sa, 24.08. 2:00 -
Fr, 23.08. 20:00 -
Fr, 23.08. 14:00 -
Fr, 23.08. 8:00 0
Fr, 23.08. 2:00 -
Do, 22.08. 20:00 -
Do, 22.08. 14:00 -
Ortszeit Schneehöhe (cm)
Sa, 24.08. 10:00 -
Sa, 24.08. 9:55 -
Sa, 24.08. 9:00 -
Sa, 24.08. 8:55 -
Sa, 24.08. 8:00 -
Sa, 24.08. 7:55 -
Sa, 24.08. 7:00 -
Sa, 24.08. 6:55 -
Sa, 24.08. 6:00 -
Link zu dieser Seite / Seite empfehlen

Das Wetter in ...